Archbald, Pennsylvania
Current Conditions -  °F | °C
As of 11:54 PM on Friday 28 Nov 2014 (Local Time) from KAVP Reporting Station
Clear Clear  
Wind Chill:   Ceiling: Unl
Heat Index: 16°   Visibility: 10mi
Dew Point:   Wind: 7mph
Humidity: 74%   Direction: 160°SSE
Pressure: 30.22"   Gusts: NA
Location:  41.51°N, 75.56°W
Report Text: KAVP 290454Z 16006KT 10SM CLR M09/M13 A3022 RMK AO2 SLP244 T10891128 410171100 $
Loading
Personal Weather Stations






























Interactive Weather Map New forecast layout! Learn more

10-Day Weather Forecast

Advertisements
Track Severe Weather on mobile